Time;durP1;ratioP1;P1;durP2;ratioP2;P2;SDS_P1;SDS_P2;PMS_P1;PMS_P2;Temp;Humidity;BMP_temperature;BMP_pressure;BME280_temperature;BME280_humidity;BME280_pressure;Samples;Min_cycle;Max_cycle;Signal;HPM_P1;HPM_P2
2021/11/23 00:00:48;;;;;;;3.97;2.77;;;2.60;84.10;;;2.93;63.62;98563.53;5045650;28;20067;-47
2021/11/23 00:03:18;;;;;;;4.77;3.00;;;2.60;83.60;;;2.89;63.46;98561.13;5046972;28;20055;-44
2021/11/23 00:05:48;;;;;;;4.30;2.80;;;2.50;83.40;;;2.84;63.46;98565.84;5045117;28;20294;-44
2021/11/23 00:08:18;;;;;;;5.00;3.00;;;2.50;83.80;;;2.79;63.45;98567.88;5046078;28;20056;-46
2021/11/23 00:10:46;;;;;;;5.73;2.93;;;2.40;83.60;;;2.78;63.71;98563.59;5047509;28;20053;-43
2021/11/23 00:13:16;;;;;;;5.17;3.13;;;2.40;84.00;;;2.74;63.64;98558.50;5046951;28;20065;-46
2021/11/23 00:15:45;;;;;;;5.23;3.50;;;2.30;84.50;;;2.71;63.74;98566.53;5045898;28;20373;-44
2021/11/23 00:18:14;;;;;;;6.87;3.50;;;2.30;84.50;;;2.68;63.74;98569.38;5045272;28;20071;-46
2021/11/23 00:20:44;;;;;;;5.97;3.63;;;2.30;84.70;;;2.66;63.55;98573.88;5045966;28;20058;-46
2021/11/23 00:23:13;;;;;;;7.63;4.20;;;2.30;84.80;;;2.65;63.48;98577.41;5045409;28;20067;-44
2021/11/23 00:25:42;;;;;;;5.87;3.27;;;2.30;84.80;;;2.65;63.71;98573.94;5044264;28;20057;-46
2021/11/23 00:28:12;;;;;;;5.17;3.80;;;2.30;84.60;;;2.65;63.73;98573.94;5029151;28;20052;-44
2021/11/23 00:30:43;;;;;;;7.07;4.07;;;2.30;84.60;;;2.64;63.57;98572.28;5045266;28;20064;-45
2021/11/23 00:33:11;;;;;;;4.67;3.43;;;2.30;84.80;;;2.65;63.82;98571.31;5046051;28;20064;-47
2021/11/23 00:35:39;;;;;;;4.70;3.10;;;2.30;84.50;;;2.66;63.77;98570.41;5046009;28;20052;-43
2021/11/23 00:38:08;;;;;;;5.43;3.97;;;2.30;84.50;;;2.66;63.61;98573.88;5045516;28;20041;-45
2021/11/23 00:40:37;;;;;;;6.23;4.17;;;2.30;84.30;;;2.64;63.95;98573.13;5045340;28;20051;-43
2021/11/23 00:43:05;;;;;;;7.07;3.90;;;2.30;83.70;;;2.59;63.81;98576.94;5029103;28;20239;-46
2021/11/23 00:45:35;;;;;;;6.33;4.10;;;2.20;83.70;;;2.56;63.54;98585.88;5044958;28;20065;-44
2021/11/23 00:48:04;;;;;;;7.20;4.27;;;2.20;84.00;;;2.51;63.86;98585.25;5044997;28;20041;-44
2021/11/23 00:50:34;;;;;;;12.97;4.07;;;2.10;83.90;;;2.48;64.05;98586.31;5028973;28;20057;-44
2021/11/23 00:53:04;;;;;;;6.83;3.60;;;2.10;84.50;;;2.46;63.99;98590.78;5045131;28;20049;-44
2021/11/23 00:55:33;;;;;;;7.47;3.63;;;2.10;84.50;;;2.43;64.01;98588.34;5044884;28;20065;-43
2021/11/23 00:58:02;;;;;;;6.27;3.87;;;2.10;84.50;;;2.40;63.98;98585.88;5043426;28;20051;-45
2021/11/23 01:00:30;;;;;;;4.83;3.20;;;1.90;84.60;;;2.39;63.83;98589.44;5045909;28;20055;-44
2021/11/23 01:02:58;;;;;;;5.83;3.77;;;2.00;84.80;;;2.34;63.89;98581.81;5044671;28;20263;-46
2021/11/23 01:05:27;;;;;;;5.37;3.50;;;2.00;84.30;;;2.32;63.92;98588.09;5045142;28;20052;-43
2021/11/23 01:07:55;;;;;;;5.63;3.73;;;1.90;84.60;;;2.28;64.01;98590.03;5045716;28;20061;-42
2021/11/23 01:10:24;;;;;;;5.20;3.70;;;1.90;85.10;;;2.26;63.87;98591.91;5044586;28;20064;-43
2021/11/23 01:12:52;;;;;;;4.97;3.80;;;1.90;85.00;;;2.28;63.98;98595.28;5046425;28;20359;-43
2021/11/23 01:15:21;;;;;;;5.97;3.90;;;1.90;85.00;;;2.28;64.04;98597.91;5044463;28;20060;-45
2021/11/23 01:17:49;;;;;;;5.73;4.07;;;1.90;84.60;;;2.28;64.03;98597.06;5044561;28;20051;-44
2021/11/23 01:20:17;;;;;;;7.80;4.43;;;1.90;84.90;;;2.29;64.24;98604.88;5045808;28;20053;-44
2021/11/23 01:22:45;;;;;;;5.30;3.90;;;1.90;84.80;;;2.31;63.91;98605.66;5045471;28;20049;-46
2021/11/23 01:25:14;;;;;;;6.33;3.67;;;2.00;84.80;;;2.34;64.34;98605.44;5043768;28;20083;-44
2021/11/23 01:27:42;;;;;;;5.80;3.80;;;2.00;84.50;;;2.37;64.17;98607.09;5027883;28;20041;-44
2021/11/23 01:30:12;;;;;;;6.90;4.30;;;2.10;84.50;;;2.41;64.11;98610.38;5043229;28;20192;-44
2021/11/23 01:32:41;;;;;;;6.30;3.53;;;2.10;84.30;;;2.43;64.13;98616.41;5041824;28;20045;-44
2021/11/23 01:35:12;;;;;;;9.10;5.53;;;2.20;84.20;;;2.47;64.22;98607.41;5045236;28;20053;-44
2021/11/23 01:37:43;;;;;;;6.57;4.77;;;2.20;83.90;;;2.47;63.81;98605.63;5044902;28;20232;-44
2021/11/23 01:40:12;;;;;;;6.77;4.60;;;2.20;83.80;;;2.46;63.81;98609.19;5045476;28;20065;-44
2021/11/23 01:42:41;;;;;;;6.17;4.07;;;2.20;83.80;;;2.45;63.82;98607.50;5043650;28;20057;-45
2021/11/23 01:45:10;;;;;;;4.07;3.23;;;2.10;83.80;;;2.43;64.07;98612.00;5044812;28;20064;-47
2021/11/23 01:47:38;;;;;;;5.40;3.53;;;2.10;84.80;;;2.45;64.30;98607.50;5044569;28;20055;-44
2021/11/23 01:50:11;;;;;;;4.77;3.67;;;2.10;83.90;;;2.45;64.21;98607.50;5043987;28;20067;-44
2021/11/23 01:52:42;;;;;;;5.07;3.60;;;2.10;83.90;;;2.42;63.99;98610.28;5043612;28;20047;-43
2021/11/23 01:55:11;;;;;;;5.20;3.63;;;2.10;83.60;;;2.42;63.89;98604.19;5044866;28;20057;-44
2021/11/23 01:57:41;;;;;;;6.77;3.53;;;2.00;83.60;;;2.38;63.83;98606.13;5044955;28;20055;-44
2021/11/23 02:00:10;;;;;;;6.93;4.10;;;2.00;83.50;;;2.34;63.77;98610.72;5044957;28;20244;-44
2021/11/23 02:02:43;;;;;;;5.70;4.10;;;2.00;83.50;;;2.30;63.95;98618.88;5042921;28;20371;-46
2021/11/23 02:05:12;;;;;;;5.90;4.03;;;1.90;83.40;;;2.26;63.91;98612.94;5044261;28;20059;-45
2021/11/23 02:07:41;;;;;;;7.37;4.30;;;1.90;83.70;;;2.23;63.83;98620.13;5044625;28;20052;-45
2021/11/23 02:10:10;;;;;;;6.80;4.03;;;1.90;83.70;;;2.16;63.83;98620.47;5045776;28;20053;-44
2021/11/23 02:12:39;;;;;;;5.27;3.50;;;1.80;83.60;;;2.13;63.65;98620.66;5048407;28;20048;-44
2021/11/23 02:15:10;;;;;;;6.33;4.10;;;1.80;83.80;;;2.14;64.14;98618.88;5031532;28;20061;-44
2021/11/23 02:17:39;;;;;;;6.97;4.07;;;1.70;83.70;;;2.07;64.17;98613.09;5049533;28;20436;-44
2021/11/23 02:20:22;;;;;;;8.17;4.33;;;1.70;83.70;;;2.04;63.71;98607.19;5048455;28;20059;-44
2021/11/23 02:22:50;;;;;;;6.63;3.93;;;1.70;84.00;;;2.04;63.71;98608.03;5048725;28;20780;-44
2021/11/23 02:25:20;;;;;;;5.43;3.53;;;1.70;84.20;;;2.03;63.79;98608.09;5046933;28;20057;-45
2021/11/23 02:27:49;;;;;;;6.13;3.90;;;1.60;84.10;;;2.00;63.90;98603.00;5048195;28;20049;-44
2021/11/23 02:30:17;;;;;;;5.80;3.90;;;1.60;84.10;;;2.01;64.04;98608.19;5048891;28;20056;-44
2021/11/23 02:32:52;;;;;;;7.63;4.77;;;1.70;84.20;;;2.00;64.36;98603.88;5046000;28;20053;-44
2021/11/23 02:35:23;;;;;;;7.27;4.73;;;1.70;84.00;;;2.04;64.06;98609.81;5048688;28;20507;-43
2021/11/23 02:37:55;;;;;;;5.70;4.03;;;1.70;84.70;;;2.03;63.89;98613.34;5048813;28;20071;-45
2021/11/23 02:40:24;;;;;;;7.23;4.00;;;1.70;83.80;;;2.01;63.87;98610.81;5048453;28;20067;-44
2021/11/23 02:42:53;;;;;;;8.77;5.17;;;1.70;83.90;;;1.99;64.24;98610.03;5048467;28;20052;-43
2021/11/23 02:45:24;;;;;;;8.27;5.80;;;1.60;83.80;;;2.01;63.93;98609.97;5048117;28;20060;-43
2021/11/23 02:47:55;;;;;;;7.13;5.50;;;1.60;83.80;;;1.99;64.01;98603.94;5047782;28;20067;-44
2021/11/23 02:50:25;;;;;;;5.80;4.27;;;1.70;83.60;;;1.97;63.84;98614.53;5048444;28;20049;-43
2021/11/23 02:52:53;;;;;;;7.50;5.03;;;1.60;83.80;;;1.99;63.79;98617.91;5046856;28;20513;-43
2021/11/23 02:55:25;;;;;;;6.53;4.33;;;1.60;83.80;;;2.00;63.88;98616.13;5048331;28;20064;-44
2021/11/23 02:57:55;;;;;;;6.67;3.97;;;1.60;83.30;;;1.97;64.00;98611.91;5047733;28;20045;-44
2021/11/23 03:00:25;;;;;;;5.93;4.17;;;1.60;83.40;;;1.95;64.33;98621.66;5047783;28;20053;-44
2021/11/23 03:02:54;;;;;;;7.10;4.53;;;1.60;83.50;;;1.90;63.97;98621.03;5046256;28;20061;-42
2021/11/23 03:05:41;;;;;;;9.30;4.70;;;1.60;83.10;;;1.82;63.75;98610.09;5592572;22;20553;-44
2021/11/23 03:08:09;;;;;;;6.40;4.50;;;1.50;84.10;;;1.76;64.32;98613.91;5026815;28;20060;-44
2021/11/23 03:10:37;;;;;;;5.50;4.03;;;1.40;83.70;;;1.75;64.15;98613.06;5026973;28;20049;-42
2021/11/23 03:13:06;;;;;;;6.10;4.03;;;1.40;84.50;;;1.74;64.03;98619.25;5027694;28;20049;-44
2021/11/23 03:15:33;;;;;;;7.17;4.33;;;1.40;84.60;;;1.77;64.34;98611.22;5027391;28;20354;-43
2021/11/23 03:18:02;;;;;;;7.03;4.43;;;1.50;84.70;;;1.79;64.63;98613.75;5026764;28;20053;-42
2021/11/23 03:20:30;;;;;;;6.77;4.47;;;1.50;84.50;;;1.80;64.30;98611.97;5027708;28;20405;-45
2021/11/23 03:22:59;;;;;;;7.27;4.37;;;1.50;84.30;;;1.80;64.54;98609.34;5027181;28;20588;-44
2021/11/23 03:25:27;;;;;;;7.93;4.30;;;1.50;84.20;;;1.75;64.16;98605.19;5029126;28;20049;-46
2021/11/23 03:27:56;;;;;;;9.03;4.67;;;1.40;83.80;;;1.74;64.59;98605.28;5020490;28;20060;-43
2021/11/23 03:30:28;;;;;;;8.03;4.63;;;1.40;84.40;;;1.70;63.95;98612.47;5028157;28;20055;-45
2021/11/23 03:33:01;;;;;;;5.77;4.30;;;1.30;84.00;;;1.67;64.65;98612.63;5025083;28;20050;-44
2021/11/23 03:35:32;;;;;;;7.60;4.67;;;1.30;84.30;;;1.63;64.21;98611.09;5026817;28;20049;-43
2021/11/23 03:38:01;;;;;;;6.27;4.03;;;1.30;84.00;;;1.61;63.96;98612.09;5021419;28;20050;-44
2021/11/23 03:40:31;;;;;;;5.23;4.27;;;1.20;84.40;;;1.57;64.49;98608.78;5027256;28;20030;-43
2021/11/23 03:43:00;;;;;;;6.43;4.50;;;1.20;84.20;;;1.55;64.59;98608.88;5028847;28;20053;-44
2021/11/23 03:45:29;;;;;;;7.10;4.43;;;1.20;84.40;;;1.54;64.26;98603.72;5026789;28;20042;-45
2021/11/23 03:47:58;;;;;;;5.40;3.90;;;1.20;84.40;;;1.52;64.15;98600.31;5028311;28;20059;-47
2021/11/23 03:50:28;;;;;;;6.30;4.03;;;1.20;84.50;;;1.48;64.51;98607.50;5027242;28;20061;-44
2021/11/23 03:52:57;;;;;;;7.03;4.70;;;1.10;84.60;;;1.51;64.63;98612.59;5026723;28;20061;-43
2021/11/23 03:55:27;;;;;;;6.03;4.30;;;1.20;84.80;;;1.53;64.23;98610.75;5025739;28;20059;-44
2021/11/23 03:57:57;;;;;;;7.50;5.30;;;1.20;84.40;;;1.56;64.03;98614.97;5027582;28;20060;-44
2021/11/23 04:00:25;;;;;;;10.93;6.13;;;1.20;84.40;;;1.55;64.19;98610.66;5027043;28;20045;-43
2021/11/23 04:02:54;;;;;;;6.87;4.97;;;1.30;84.40;;;1.56;64.08;98613.19;5028350;28;20055;-45
2021/11/23 04:05:23;;;;;;;9.90;6.13;;;1.20;84.20;;;1.56;64.51;98613.19;5027988;28;20053;-46
2021/11/23 04:07:52;;;;;;;7.40;4.67;;;1.30;84.30;;;1.55;63.99;98614.13;5026519;28;20055;-46
2021/11/23 04:10:21;;;;;;;9.97;4.67;;;1.20;84.10;;;1.51;63.71;98615.22;5027002;28;20064;-43
2021/11/23 04:12:51;;;;;;;8.90;4.47;;;1.20;84.00;;;1.49;64.49;98610.97;5027045;28;20063;-43
2021/11/23 04:15:19;;;;;;;6.93;4.53;;;1.20;84.30;;;1.46;64.17;98611.16;5026644;28;20335;-44
2021/11/23 04:17:48;;;;;;;7.70;4.47;;;1.10;84.20;;;1.40;64.02;98607.06;5025642;28;20064;-44
2021/11/23 04:20:16;;;;;;;6.57;4.33;;;1.00;84.30;;;1.39;63.93;98610.59;5006808;28;20330;-45
2021/11/23 04:22:45;;;;;;;6.13;4.60;;;1.10;84.30;;;1.34;64.42;98613.47;5027836;28;20062;-44
2021/11/23 04:25:13;;;;;;;7.63;4.90;;;1.00;84.10;;;1.35;64.45;98604.66;5028048;28;20263;-43
2021/11/23 04:27:41;;;;;;;6.47;4.53;;;1.00;84.10;;;1.35;64.47;98609.06;5024559;28;20053;-44
2021/11/23 04:30:12;;;;;;;8.13;4.83;;;1.00;84.10;;;1.35;64.25;98609.06;5026753;28;20057;-45
2021/11/23 04:32:42;;;;;;;6.50;4.63;;;1.00;83.90;;;1.35;63.66;98615.16;5021227;28;20060;-44
2021/11/23 04:35:12;;;;;;;8.20;4.93;;;1.00;83.90;;;1.36;64.71;98619.50;5026374;28;20049;-44
2021/11/23 04:37:40;;;;;;;7.77;5.47;;;1.00;84.00;;;1.36;64.22;98611.63;5024276;28;20393;-45
2021/11/23 04:40:11;;;;;;;6.03;4.60;;;1.10;84.20;;;1.37;64.11;98615.09;5027359;28;20671;-44
2021/11/23 04:42:40;;;;;;;6.53;4.57;;;1.00;84.20;;;1.37;63.91;98617.72;5024502;28;20397;-44
2021/11/23 04:45:11;;;;;;;8.03;4.97;;;1.10;84.60;;;1.33;64.10;98617.03;5025337;28;20064;-46
2021/11/23 04:47:40;;;;;;;8.27;5.70;;;1.00;84.30;;;1.31;64.68;98612.78;5026667;28;20049;-44
2021/11/23 04:50:10;;;;;;;8.23;5.40;;;1.00;84.60;;;1.31;64.08;98615.41;5021047;28;20578;-46
2021/11/23 04:52:38;;;;;;;13.40;5.10;;;1.00;84.60;;;1.30;64.50;98617.19;5025387;28;20061;-44
2021/11/23 04:55:07;;;;;;;10.00;6.50;;;1.00;84.60;;;1.31;64.13;98623.28;5025992;28;20058;-44
2021/11/23 04:57:36;;;;;;;11.20;6.70;;;1.00;84.50;;;1.29;64.24;98610.25;5025166;28;20257;-46
2021/11/23 05:00:07;;;;;;;10.13;6.30;;;1.00;84.80;;;1.30;64.72;98617.19;5027741;28;20057;-43
2021/11/23 05:02:35;;;;;;;8.80;6.63;;;1.00;84.60;;;1.30;64.88;98619.81;5024124;28;20061;-45
2021/11/23 05:05:05;;;;;;;10.40;5.57;;;1.00;84.60;;;1.30;64.13;98622.44;5036565;28;20045;-45
2021/11/23 05:07:33;;;;;;;8.97;6.03;;;0.80;84.20;;;1.28;64.07;98621.69;5026300;28;20049;-44
2021/11/23 05:10:01;;;;;;;8.83;6.27;;;1.00;84.40;;;1.29;64.10;98619.91;5026761;28;20261;-45
2021/11/23 05:12:29;;;;;;;11.70;7.60;;;1.00;84.50;;;1.26;64.58;98628.78;5024388;28;20061;-45
2021/11/23 05:14:57;;;;;;;11.23;6.90;;;1.00;84.50;;;1.26;64.43;98634.03;5025373;28;20180;-46
2021/11/23 05:17:24;;;;;;;12.83;8.23;;;0.90;84.40;;;1.25;64.05;98628.84;5025102;28;20239;-44
2021/11/23 05:19:54;;;;;;;14.60;9.87;;;0.90;84.20;;;1.22;63.75;98636.88;5026997;28;20346;-43
2021/11/23 05:22:22;;;;;;;19.60;11.50;;;0.90;84.10;;;1.17;63.86;98631.88;5024627;28;20425;-44
2021/11/23 05:24:50;;;;;;;18.77;10.73;;;0.80;83.70;;;1.14;64.13;98640.75;5017180;28;20519;-46
2021/11/23 05:27:18;;;;;;;17.60;10.27;;;0.80;84.00;;;1.13;63.97;98641.66;5024330;28;20389;-44
2021/11/23 05:29:46;;;;;;;16.77;9.97;;;0.80;83.90;;;1.13;64.51;98640.81;5024443;28;20251;-46
2021/11/23 05:32:15;;;;;;;13.93;6.70;;;0.80;84.20;;;1.11;64.23;98643.53;5024350;28;20061;-46
2021/11/23 05:34:43;;;;;;;14.37;8.00;;;0.80;84.00;;;1.08;64.69;98642.81;5016486;28;20242;-45
2021/11/23 05:37:11;;;;;;;13.33;8.43;;;0.70;84.20;;;1.07;64.44;98644.59;5023712;28;20049;-46
2021/11/23 05:39:38;;;;;;;11.87;8.00;;;0.70;84.00;;;1.05;64.22;98635.97;5025512;28;20060;-45
2021/11/23 05:42:06;;;;;;;11.70;7.50;;;0.70;84.10;;;1.07;64.56;98641.97;5024257;28;20054;-44
2021/11/23 05:44:36;;;;;;;11.10;7.93;;;0.70;84.30;;;1.04;64.42;98634.25;5024393;28;20239;-44
2021/11/23 05:47:05;;;;;;;14.60;8.77;;;0.70;84.20;;;1.05;64.28;98648.19;5023535;28;20065;-46
2021/11/23 05:49:34;;;;;;;15.87;9.77;;;0.70;84.10;;;1.03;63.93;98647.44;5022991;28;20049;-45
2021/11/23 05:52:02;;;;;;;17.30;10.13;;;0.70;84.00;;;1.02;64.10;98648.38;5024511;28;20051;-45
2021/11/23 05:54:31;;;;;;;19.40;11.00;;;0.70;84.00;;;1.01;64.71;98644.03;5024466;28;20051;-47
2021/11/23 05:56:59;;;;;;;18.17;12.10;;;0.70;84.10;;;1.00;64.24;98645.81;5024990;28;20041;-44
2021/11/23 05:59:27;;;;;;;19.87;12.37;;;0.70;84.00;;;0.94;63.81;98644.34;5025075;28;20053;-45
2021/11/23 06:01:59;;;;;;;20.17;13.53;;;0.60;83.70;;;0.88;63.80;98649.91;5024567;28;20041;-45
2021/11/23 06:04:27;;;;;;;21.30;11.90;;;0.50;83.60;;;0.86;63.86;98648.31;5025195;28;20057;-45
2021/11/23 06:06:55;;;;;;;17.97;11.90;;;0.50;84.20;;;0.86;64.54;98643.06;5023545;28;20148;-44
2021/11/23 06:09:23;;;;;;;16.13;10.57;;;0.50;84.20;;;0.88;64.15;98649.06;5024142;28;20053;-44
2021/11/23 06:11:52;;;;;;;12.40;8.23;;;0.50;84.30;;;0.88;64.08;98655.16;5024601;28;20250;-44
2021/11/23 06:14:20;;;;;;;12.80;8.93;;;0.60;84.00;;;0.87;64.36;98656.06;5025334;28;20054;-44
2021/11/23 06:16:48;;;;;;;16.77;11.67;;;0.60;83.70;;;0.81;63.92;98647.66;5024460;28;20239;-42
2021/11/23 06:19:16;;;;;;;19.50;11.97;;;0.50;84.30;;;0.80;64.51;98654.69;5025527;28;20257;-43
2021/11/23 06:21:45;;;;;;;12.00;8.53;;;0.50;84.70;;;0.82;64.36;98654.63;5023563;28;20045;-42
2021/11/23 06:24:13;;;;;;;19.73;11.60;;;0.50;84.50;;;0.79;64.30;98647.75;5020203;28;20053;-48
2021/11/23 06:26:41;;;;;;;15.33;11.10;;;0.50;85.10;;;0.80;64.16;98654.69;5023106;28;20069;-44
2021/11/23 06:29:09;;;;;;;13.30;9.53;;;0.50;85.00;;;0.75;64.50;98647.03;5025964;28;20366;-43
2021/11/23 06:31:37;;;;;;;10.83;7.63;;;0.50;84.70;;;0.73;64.62;98655.91;5023720;28;20383;-43
2021/11/23 06:34:08;;;;;;;9.03;6.57;;;0.40;84.90;;;0.74;64.55;98665.47;5023980;28;20048;-43
2021/11/23 06:36:36;;;;;;;11.37;7.10;;;0.50;85.10;;;0.75;64.19;98672.41;5024423;28;20446;-43
2021/11/23 06:39:06;;;;;;;14.07;8.10;;;0.50;84.90;;;0.74;64.98;98668.09;5026051;28;20049;-42
2021/11/23 06:41:35;;;;;;;17.73;9.33;;;0.50;84.90;;;0.74;65.02;98671.56;5024606;28;20383;-45
2021/11/23 06:44:03;;;;;;;13.80;9.20;;;0.50;84.70;;;0.75;64.88;98682.88;5023491;28;20063;-45
2021/11/23 06:46:32;;;;;;;13.37;9.10;;;0.50;84.50;;;0.76;64.30;98685.44;5024098;28;20373;-44
2021/11/23 06:49:00;;;;;;;14.57;7.93;;;0.50;84.50;;;0.77;64.96;98688.91;5025144;28;20045;-45
2021/11/23 06:51:28;;;;;;;13.20;7.80;;;0.50;84.70;;;0.75;64.89;98696.00;5024522;28;20058;-45
2021/11/23 06:53:56;;;;;;;12.77;10.77;;;0.40;84.60;;;0.75;65.04;98690.75;5024087;28;20064;-46
2021/11/23 06:56:24;;;;;;;14.23;9.30;;;0.40;84.80;;;0.74;65.02;98699.56;5025609;28;20045;-46
2021/11/23 06:58:52;;;;;;;13.73;8.90;;;0.40;84.50;;;0.70;64.52;98700.59;5027243;28;20057;-50
2021/11/23 07:01:20;;;;;;;13.47;8.87;;;0.40;84.10;;;0.69;64.92;98705.00;5029181;28;20091;-47
2021/11/23 07:03:48;;;;;;;11.93;8.07;;;0.40;84.20;;;0.69;63.98;98712.03;5026777;28;20049;-46
2021/11/23 07:06:16;;;;;;;11.33;6.87;;;0.20;83.60;;;0.63;64.54;98709.69;5026696;28;20058;-47
2021/11/23 07:08:44;;;;;;;15.13;8.23;;;0.30;83.90;;;0.61;64.51;98715.00;5027586;28;20053;-46
2021/11/23 07:11:13;;;;;;;13.50;9.03;;;0.30;84.60;;;0.58;64.27;98708.16;5028909;28;20258;-48
2021/11/23 07:13:42;;;;;;;12.47;8.23;;;0.20;84.70;;;0.55;64.63;98710.91;5026169;28;20050;-46
2021/11/23 07:16:10;;;;;;;14.43;8.63;;;0.20;84.70;;;0.54;64.72;98705.72;5027535;28;20049;-46
2021/11/23 07:18:40;;;;;;;15.53;9.53;;;0.30;85.10;;;0.57;65.11;98716.09;5026082;28;20053;-48
2021/11/23 07:21:08;;;;;;;13.63;8.87;;;0.30;85.30;;;0.59;64.91;98716.84;5028292;28;20045;-50
2021/11/23 07:23:57;;;;;;;10.57;6.97;;;0.30;85.20;;;0.60;64.76;98718.53;5028227;28;20045;-46
2021/11/23 07:26:27;;;;;;;11.27;7.47;;;0.30;85.20;;;0.62;64.59;98721.97;5024251;28;20058;-47
2021/11/23 07:28:55;;;;;;;13.13;8.30;;;0.30;85.10;;;0.66;64.55;98717.41;5027549;28;20053;-49
2021/11/23 07:31:23;;;;;;;12.93;9.77;;;0.40;85.00;;;0.66;65.09;98725.25;5024463;28;20045;-47
2021/11/23 07:33:52;;;;;;;12.93;8.80;;;0.40;85.10;;;0.68;65.18;98724.28;5023515;28;20068;-46
2021/11/23 07:36:22;;;;;;;12.53;8.10;;;0.40;85.00;;;0.67;64.59;98719.94;5024262;28;20052;-47
2021/11/23 07:38:53;;;;;;;13.03;8.53;;;0.40;85.30;;;0.70;64.77;98718.94;5029566;28;20049;-45
2021/11/23 07:41:31;;;;;;;20.33;9.00;;;0.50;85.50;;;0.72;64.99;98728.47;5033539;28;20248;-47
2021/11/23 07:44:07;;;;;;;10.90;8.07;;;0.50;85.50;;;0.75;65.22;98735.31;5039217;28;20045;-47
2021/11/23 07:46:42;;;;;;;15.60;8.47;;;0.50;86.00;;;0.77;65.36;98736.09;5038156;28;20343;-48
2021/11/23 07:49:17;;;;;;;14.80;10.40;;;0.50;86.20;;;0.78;64.91;98748.28;5037535;28;20047;-48
2021/11/23 07:51:50;;;;;;;68.43;32.67;;;0.50;86.30;;;0.81;65.41;98732.41;5032397;28;20045;-47
2021/11/23 07:54:26;;;;;;;67.30;30.57;;;0.60;86.60;;;0.82;65.54;98744.59;5037408;28;20056;-50
2021/11/23 07:56:58;;;;;;;33.20;17.47;;;0.60;86.70;;;0.83;64.90;98741.03;5040045;28;20055;-47
2021/11/23 07:59:27;;;;;;;17.60;10.03;;;0.60;86.90;;;0.88;65.54;98753.94;5039618;28;20059;-48
2021/11/23 08:01:59;;;;;;;19.27;11.70;;;0.60;86.70;;;0.91;65.47;98754.66;5032858;28;20083;-46
2021/11/23 08:04:29;;;;;;;13.07;7.83;;;0.60;86.70;;;0.90;65.18;98750.31;5039932;28;20080;-49
2021/11/23 08:06:59;;;;;;;12.53;8.10;;;0.60;86.70;;;0.89;65.14;98756.50;5029457;28;20401;-46
2021/11/23 08:09:28;;;;;;;14.07;8.17;;;0.60;86.80;;;0.91;65.40;98751.16;5021882;28;20053;-46
2021/11/23 08:12:00;;;;;;;11.63;8.60;;;0.70;87.20;;;0.93;65.19;98752.81;5040433;28;20075;-49
2021/11/23 08:14:38;;;;;;;13.23;8.27;;;0.70;87.20;;;0.97;65.82;98756.13;5039258;28;20065;-48
2021/11/23 08:17:07;;;;;;;45.33;21.23;;;0.70;87.50;;;1.00;65.67;98758.59;5031765;28;20239;-48
2021/11/23 08:19:40;;;;;;;45.37;21.53;;;0.70;87.50;;;1.02;65.35;98762.00;5037490;28;20053;-47
2021/11/23 08:22:09;;;;;;;28.17;14.20;;;0.80;87.70;;;1.03;65.50;98757.59;5036669;28;20045;-47
2021/11/23 08:24:37;;;;;;;20.43;11.27;;;0.80;87.90;;;1.06;65.95;98768.78;5037987;28;20061;-47
2021/11/23 08:27:05;;;;;;;24.10;12.60;;;0.80;88.00;;;1.08;65.89;98766.94;5038838;28;20055;-49
2021/11/23 08:29:33;;;;;;;22.87;13.33;;;0.80;87.90;;;1.12;65.68;98773.72;5038014;28;20058;-45
2021/11/23 08:32:02;;;;;;;26.87;15.13;;;0.90;88.10;;;1.12;65.98;98765.84;5039196;28;20255;-46
2021/11/23 08:34:31;;;;;;;28.53;16.60;;;0.90;88.00;;;1.14;66.30;98765.78;5039869;28;20051;-47
2021/11/23 08:37:01;;;;;;;21.57;11.03;;;0.90;88.10;;;1.15;65.77;98764.88;5039903;28;20057;-47
2021/11/23 08:39:29;;;;;;;15.07;9.63;;;0.90;88.10;;;1.16;65.96;98761.31;5037762;28;20053;-47
2021/11/23 08:41:57;;;;;;;15.50;8.43;;;0.90;88.40;;;1.20;65.92;98765.47;5036205;28;20427;-47
2021/11/23 08:44:26;;;;;;;13.50;8.90;;;0.90;88.30;;;1.23;66.39;98759.25;5038518;28;20043;-47
2021/11/23 08:46:54;;;;;;;14.13;9.33;;;1.00;88.20;;;1.24;65.74;98758.31;5040400;28;20052;-48
2021/11/23 08:49:22;;;;;;;17.57;12.37;;;1.00;88.20;;;1.25;66.13;98760.03;5039185;28;20049;-50
2021/11/23 08:51:53;;;;;;;16.97;10.03;;;1.00;88.30;;;1.27;65.53;98764.25;5031450;28;20061;-46
2021/11/23 08:54:21;;;;;;;13.47;8.73;;;1.00;88.10;;;1.28;66.25;98760.72;5037838;28;20065;-49
2021/11/23 08:57:02;;;;;;;15.73;8.63;;;1.00;88.20;;;1.30;65.69;98771.13;5039760;28;20108;-49
2021/11/23 08:59:37;;;;;;;11.23;7.87;;;1.10;88.50;;;1.33;66.33;98763.13;5035200;28;20249;-46
2021/11/23 09:02:06;;;;;;;12.43;8.27;;;1.10;88.40;;;1.36;66.02;98763.81;5040161;28;20281;-46
2021/11/23 09:04:35;;;;;;;14.47;8.40;;;1.10;88.50;;;1.40;65.78;98769.75;5040416;28;20050;-50
2021/11/23 09:07:07;;;;;;;15.90;10.03;;;1.20;88.40;;;1.43;65.86;98766.13;5039724;28;20041;-45
2021/11/23 09:09:38;;;;;;;18.37;11.50;;;1.20;88.10;;;1.44;66.11;98765.22;5039168;28;20061;-46
2021/11/23 09:12:13;;;;;;;16.43;10.47;;;1.20;88.00;;;1.46;66.31;98772.06;5037529;28;20051;-46
2021/11/23 09:14:43;;;;;;;12.37;8.50;;;1.20;88.20;;;1.51;66.48;98771.84;5039599;28;20355;-48
2021/11/23 09:17:17;;;;;;;17.93;10.13;;;1.30;88.20;;;1.52;66.18;98769.16;5039152;28;20063;-47
2021/11/23 09:19:46;;;;;;;12.97;8.47;;;1.30;88.00;;;1.55;66.09;98771.63;5038506;28;20052;-48
2021/11/23 09:22:14;;;;;;;13.40;8.53;;;1.30;88.10;;;1.58;66.06;98768.81;5034377;28;20262;-48
2021/11/23 09:24:42;;;;;;;16.53;8.20;;;1.40;88.30;;;1.61;66.02;98770.47;5039790;28;20049;-48
2021/11/23 09:27:10;;;;;;;13.23;7.63;;;1.40;88.10;;;1.64;66.34;98777.34;5039162;28;20057;-48
2021/11/23 09:29:38;;;;;;;11.87;7.80;;;1.40;88.00;;;1.68;66.20;98774.47;5037376;28;20363;-47
2021/11/23 09:32:07;;;;;;;13.10;7.70;;;1.50;88.90;;;1.71;66.36;98769.06;5039142;28;20057;-46
2021/11/23 09:34:36;;;;;;;10.77;7.20;;;1.60;87.80;;;1.74;65.94;98770.69;5036611;28;20084;-52
2021/11/23 09:37:04;;;;;;;11.93;7.70;;;1.60;87.20;;;1.74;66.36;98768.88;5038941;28;20041;-47
2021/11/23 09:39:32;;;;;;;16.03;9.30;;;1.50;87.50;;;1.79;65.87;98771.31;5038506;28;20053;-45
2021/11/23 09:42:04;;;;;;;14.60;8.43;;;1.60;87.40;;;1.82;66.07;98776.38;5037376;28;20049;-48
2021/11/23 09:44:33;;;;;;;13.07;8.23;;;1.60;87.40;;;1.86;65.98;98772.69;5038484;28;20335;-47
2021/11/23 09:47:02;;;;;;;12.43;7.57;;;1.70;87.50;;;1.89;65.85;98758.53;5038894;28;20294;-46
2021/11/23 09:49:31;;;;;;;12.07;8.00;;;1.70;87.70;;;1.91;66.05;98761.94;5019025;28;20057;-46
2021/11/23 09:52:00;;;;;;;14.20;8.23;;;1.70;87.80;;;1.93;66.17;98770.59;5015826;28;20442;-47
2021/11/23 09:54:28;;;;;;;13.03;7.57;;;1.80;87.90;;;1.99;66.43;98766.78;5037434;28;20033;-46
2021/11/23 09:56:56;;;;;;;12.43;8.83;;;1.80;87.50;;;2.03;66.33;98761.28;5038809;28;20048;-49
2021/11/23 09:59:24;;;;;;;11.80;8.23;;;1.80;87.50;;;2.05;66.44;98759.44;5038519;28;20236;-46
2021/11/23 10:01:59;;;;;;;12.73;7.47;;;1.90;87.60;;;2.10;66.08;98764.47;5038927;28;20055;-46
2021/11/23 10:05:16;;;;;;;14.83;9.90;;;1.90;87.90;;;2.13;66.40;98756.41;5038520;28;20373;-47
2021/11/23 10:07:45;;;;;;;12.75;8.48;;;2.00;87.70;;;2.19;66.35;98758.72;5036297;28;20282;-47
2021/11/23 10:10:20;;;;;;;14.50;8.90;;;2.00;88.60;;;2.23;65.97;98754.13;5038211;28;20046;-48
2021/11/23 10:13:07;;;;;;;11.63;8.23;;;2.10;87.60;;;2.27;65.70;98760.91;5038284;28;20053;-49
2021/11/23 10:15:37;;;;;;;11.97;7.97;;;2.10;87.40;;;2.32;66.14;98756.28;5037957;28;20271;-46
2021/11/23 10:18:21;;;;;;;15.17;8.30;;;2.10;86.70;;;2.34;65.94;98752.63;5036087;28;20043;-47
2021/11/23 10:21:00;;;;;;;12.23;7.93;;;2.20;87.00;;;2.39;66.24;98751.56;5037741;28;20057;-47
2021/11/23 10:23:45;;;;;;;15.07;9.17;;;2.20;86.90;;;2.44;66.17;98757.38;5037962;28;20373;-48
2021/11/23 10:26:30;;;;;;;15.83;8.77;;;2.20;87.70;;;2.45;66.16;98751.22;5037998;28;20342;-47
2021/11/23 10:29:05;;;;;;;10.90;7.20;;;2.30;86.80;;;2.49;66.11;98755.38;5030667;28;20059;-47
2021/11/23 10:31:42;;;;;;;11.90;8.30;;;2.30;86.90;;;2.52;65.91;98755.19;5035781;28;20061;-47
2021/11/23 10:34:16;;;;;;;12.03;8.63;;;2.40;86.70;;;2.56;65.88;98746.22;5031764;28;20278;-47
2021/11/23 10:36:48;;;;;;;12.83;8.50;;;2.40;86.60;;;2.60;66.16;98746.88;5041186;28;20208;-45
2021/11/23 10:39:25;;;;;;;11.57;7.73;;;2.40;86.60;;;2.63;66.04;98730.94;5040642;28;20053;-46